sensor_id;sensor_type;location;lat;lon;timestamp;pressure;altitude;pressure_sealevel;temperature;humidity
74659;BME280;63186;51.204;6.536;2023-03-01T00:01:31;102549.66;;;-2.78;82.14
74659;BME280;63186;51.204;6.536;2023-03-01T00:03:57;102557.63;;;-2.85;82.12
74659;BME280;63186;51.204;6.536;2023-03-01T00:06:23;102559.00;;;-2.89;82.27
74659;BME280;63186;51.204;6.536;2023-03-01T00:08:49;102565.41;;;-2.90;82.87
74659;BME280;63186;51.204;6.536;2023-03-01T00:11:20;102570.16;;;-2.92;82.76
74659;BME280;63186;51.204;6.536;2023-03-01T00:13:47;102563.91;;;-2.92;83.43
74659;BME280;63186;51.204;6.536;2023-03-01T00:16:19;102560.66;;;-2.88;84.31
74659;BME280;63186;51.204;6.536;2023-03-01T00:18:45;102555.13;;;-2.86;83.20
74659;BME280;63186;51.204;6.536;2023-03-01T00:21:11;102563.41;;;-2.96;83.77
74659;BME280;63186;51.204;6.536;2023-03-01T00:23:37;102566.31;;;-2.97;83.59
74659;BME280;63186;51.204;6.536;2023-03-01T00:26:06;102563.78;;;-2.99;84.19
74659;BME280;63186;51.204;6.536;2023-03-01T00:28:31;102555.91;;;-3.09;83.99
74659;BME280;63186;51.204;6.536;2023-03-01T00:31:03;102560.84;;;-3.20;84.94
74659;BME280;63186;51.204;6.536;2023-03-01T00:33:28;102553.44;;;-3.18;85.13
74659;BME280;63186;51.204;6.536;2023-03-01T00:35:53;102554.19;;;-3.02;85.15
74659;BME280;63186;51.204;6.536;2023-03-01T00:38:19;102547.06;;;-2.94;84.87
74659;BME280;63186;51.204;6.536;2023-03-01T00:40:44;102548.66;;;-2.77;84.31
74659;BME280;63186;51.204;6.536;2023-03-01T00:43:09;102547.75;;;-2.69;83.46
74659;BME280;63186;51.204;6.536;2023-03-01T00:45:35;102541.94;;;-2.81;83.14
74659;BME280;63186;51.204;6.536;2023-03-01T00:48:00;102546.91;;;-2.93;84.08
74659;BME280;63186;51.204;6.536;2023-03-01T00:50:25;102530.56;;;-2.91;84.49
74659;BME280;63186;51.204;6.536;2023-03-01T00:52:55;102532.75;;;-2.95;84.28
74659;BME280;63186;51.204;6.536;2023-03-01T00:55:20;102531.97;;;-3.04;84.16
74659;BME280;63186;51.204;6.536;2023-03-01T00:57:46;102534.19;;;-3.07;85.26
74659;BME280;63186;51.204;6.536;2023-03-01T01:00:12;102531.47;;;-3.07;84.98
74659;BME280;63186;51.204;6.536;2023-03-01T01:02:37;102525.63;;;-3.11;84.30
74659;BME280;63186;51.204;6.536;2023-03-01T01:05:03;102521.91;;;-3.10;84.05
74659;BME280;63186;51.204;6.536;2023-03-01T01:07:29;102531.00;;;-3.11;85.01
74659;BME280;63186;51.204;6.536;2023-03-01T01:09:54;102526.50;;;-3.18;84.68
74659;BME280;63186;51.204;6.536;2023-03-01T01:12:20;102527.56;;;-3.28;84.39
74659;BME280;63186;51.204;6.536;2023-03-01T01:14:45;102531.31;;;-3.37;85.50
74659;BME280;63186;51.204;6.536;2023-03-01T01:17:11;102523.06;;;-3.35;85.91
74659;BME280;63186;51.204;6.536;2023-03-01T01:19:36;102523.84;;;-3.27;86.35
74659;BME280;63186;51.204;6.536;2023-03-01T01:22:01;102518.25;;;-3.17;86.41
74659;BME280;63186;51.204;6.536;2023-03-01T01:24:27;102507.09;;;-3.06;85.66
74659;BME280;63186;51.204;6.536;2023-03-01T01:26:52;102502.34;;;-3.04;84.96
74659;BME280;63186;51.204;6.536;2023-03-01T01:29:17;102503.13;;;-2.95;85.73
74659;BME280;63186;51.204;6.536;2023-03-01T01:31:43;102492.34;;;-2.95;84.45
74659;BME280;63186;51.204;6.536;2023-03-01T01:34:14;102482.59;;;-2.96;85.04
74659;BME280;63186;51.204;6.536;2023-03-01T01:36:40;102486.94;;;-2.95;85.42
74659;BME280;63186;51.204;6.536;2023-03-01T01:39:05;102481.56;;;-2.95;84.98
74659;BME280;63186;51.204;6.536;2023-03-01T01:41:31;102481.94;;;-2.98;84.41
74659;BME280;63186;51.204;6.536;2023-03-01T01:44:14;102489.19;;;-2.98;85.59
74659;BME280;63186;51.204;6.536;2023-03-01T01:46:43;102478.94;;;-3.03;84.81
74659;BME280;63186;51.204;6.536;2023-03-01T01:49:19;102485.22;;;-3.11;84.83
74659;BME280;63186;51.204;6.536;2023-03-01T01:51:48;102482.25;;;-3.24;85.38
74659;BME280;63186;51.204;6.536;2023-03-01T01:54:21;102472.25;;;-3.38;86.07
74659;BME280;63186;51.204;6.536;2023-03-01T01:56:53;102466.94;;;-3.55;85.82
74659;BME280;63186;51.204;6.536;2023-03-01T01:59:20;102452.41;;;-3.76;86.19
74659;BME280;63186;51.204;6.536;2023-03-01T02:01:50;102447.91;;;-3.92;88.06
74659;BME280;63186;51.204;6.536;2023-03-01T02:04:15;102444.78;;;-4.12;88.07
74659;BME280;63186;51.204;6.536;2023-03-01T02:06:47;102449.19;;;-4.19;88.63
74659;BME280;63186;51.204;6.536;2023-03-01T02:09:16;102447.69;;;-4.22;89.29
74659;BME280;63186;51.204;6.536;2023-03-01T02:11:44;102449.19;;;-4.19;88.94
74659;BME280;63186;51.204;6.536;2023-03-01T02:14:09;102455.25;;;-4.25;89.38
74659;BME280;63186;51.204;6.536;2023-03-01T02:16:35;102447.88;;;-4.31;89.17
74659;BME280;63186;51.204;6.536;2023-03-01T02:19:00;102446.38;;;-4.50;89.07
74659;BME280;63186;51.204;6.536;2023-03-01T02:21:37;102454.09;;;-4.39;90.89
74659;BME280;63186;51.204;6.536;2023-03-01T02:26:58;102455.59;;;-4.20;91.27
74659;BME280;63186;51.204;6.536;2023-03-01T02:29:24;102464.00;;;-4.23;91.63
74659;BME280;63186;51.204;6.536;2023-03-01T02:31:51;102452.06;;;-4.21;90.55
74659;BME280;63186;51.204;6.536;2023-03-01T02:34:22;102457.59;;;-4.14;89.81
74659;BME280;63186;51.204;6.536;2023-03-01T02:37:01;102461.63;;;-4.10;90.34
74659;BME280;63186;51.204;6.536;2023-03-01T02:39:45;102456.22;;;-4.02;91.07
74659;BME280;63186;51.204;6.536;2023-03-01T02:42:15;102461.69;;;-3.87;90.53
74659;BME280;63186;51.204;6.536;2023-03-01T02:44:41;102463.84;;;-3.74;91.84
74659;BME280;63186;51.204;6.536;2023-03-01T02:47:07;102462.50;;;-3.70;89.59
74659;BME280;63186;51.204;6.536;2023-03-01T02:49:34;102456.41;;;-3.72;88.54
74659;BME280;63186;51.204;6.536;2023-03-01T02:52:24;102461.38;;;-3.53;89.28
74659;BME280;63186;51.204;6.536;2023-03-01T02:57:18;102449.94;;;-3.55;87.47
74659;BME280;63186;51.204;6.536;2023-03-01T02:59:44;102463.59;;;-3.57;87.30
74659;BME280;63186;51.204;6.536;2023-03-01T03:02:27;102453.41;;;-3.69;88.67
74659;BME280;63186;51.204;6.536;2023-03-01T03:05:09;102451.72;;;-3.70;88.49
74659;BME280;63186;51.204;6.536;2023-03-01T03:07:36;102448.19;;;-3.79;88.23
74659;BME280;63186;51.204;6.536;2023-03-01T03:10:04;102438.31;;;-3.87;88.05
74659;BME280;63186;51.204;6.536;2023-03-01T03:12:30;102442.38;;;-3.91;88.88
74659;BME280;63186;51.204;6.536;2023-03-01T03:14:55;102441.94;;;-4.02;88.65
74659;BME280;63186;51.204;6.536;2023-03-01T03:17:20;102448.19;;;-4.10;89.79
74659;BME280;63186;51.204;6.536;2023-03-01T03:19:46;102436.59;;;-4.19;90.05
74659;BME280;63186;51.204;6.536;2023-03-01T03:22:12;102447.38;;;-4.27;89.91
74659;BME280;63186;51.204;6.536;2023-03-01T03:24:37;102442.34;;;-4.30;89.85
74659;BME280;63186;51.204;6.536;2023-03-01T03:27:06;102442.00;;;-4.35;90.23
74659;BME280;63186;51.204;6.536;2023-03-01T03:29:31;102437.63;;;-4.28;91.32
74659;BME280;63186;51.204;6.536;2023-03-01T03:31:57;102430.53;;;-4.21;90.30
74659;BME280;63186;51.204;6.536;2023-03-01T03:34:23;102431.75;;;-4.31;88.93
74659;BME280;63186;51.204;6.536;2023-03-01T03:36:53;102428.59;;;-4.51;90.17
74659;BME280;63186;51.204;6.536;2023-03-01T03:39:22;102436.31;;;-4.40;90.64
74659;BME280;63186;51.204;6.536;2023-03-01T03:41:48;102428.59;;;-4.43;90.42
74659;BME280;63186;51.204;6.536;2023-03-01T03:44:13;102433.16;;;-4.68;89.47
74659;BME280;63186;51.204;6.536;2023-03-01T03:46:38;102418.50;;;-4.57;91.84
74659;BME280;63186;51.204;6.536;2023-03-01T03:49:03;102427.56;;;-4.50;91.73
74659;BME280;63186;51.204;6.536;2023-03-01T03:51:29;102421.53;;;-4.52;91.10
74659;BME280;63186;51.204;6.536;2023-03-01T03:53:54;102423.91;;;-4.49;91.21
74659;BME280;63186;51.204;6.536;2023-03-01T03:56:19;102424.06;;;-4.43;92.65
74659;BME280;63186;51.204;6.536;2023-03-01T03:58:44;102416.28;;;-4.29;91.30
74659;BME280;63186;51.204;6.536;2023-03-01T04:01:10;102420.34;;;-4.42;89.82
74659;BME280;63186;51.204;6.536;2023-03-01T04:03:35;102424.41;;;-4.54;91.02
74659;BME280;63186;51.204;6.536;2023-03-01T04:06:01;102415.69;;;-4.56;91.51
74659;BME280;63186;51.204;6.536;2023-03-01T04:08:27;102415.00;;;-4.66;90.97
74659;BME280;63186;51.204;6.536;2023-03-01T04:10:58;102408.81;;;-4.91;90.57
74659;BME280;63186;51.204;6.536;2023-03-01T04:13:23;102412.84;;;-5.03;91.61
74659;BME280;63186;51.204;6.536;2023-03-01T04:15:51;102403.59;;;-5.09;94.12
74659;BME280;63186;51.204;6.536;2023-03-01T04:18:18;102395.72;;;-4.94;96.01
74659;BME280;63186;51.204;6.536;2023-03-01T04:20:44;102400.75;;;-4.67;93.35
74659;BME280;63186;51.204;6.536;2023-03-01T04:23:15;102391.19;;;-4.69;92.66
74659;BME280;63186;51.204;6.536;2023-03-01T04:25:48;102385.78;;;-4.61;92.84
74659;BME280;63186;51.204;6.536;2023-03-01T04:28:40;102385.59;;;-4.59;92.83
74659;BME280;63186;51.204;6.536;2023-03-01T04:31:18;102378.91;;;-4.72;92.60
74659;BME280;63186;51.204;6.536;2023-03-01T04:33:53;102382.44;;;-4.71;92.85
74659;BME280;63186;51.204;6.536;2023-03-01T04:36:22;102387.31;;;-4.67;93.04
74659;BME280;63186;51.204;6.536;2023-03-01T04:38:48;102375.72;;;-4.83;92.75
74659;BME280;63186;51.204;6.536;2023-03-01T04:41:16;102388.66;;;-4.79;93.01
74659;BME280;63186;51.204;6.536;2023-03-01T04:43:42;102390.88;;;-4.82;92.82
74659;BME280;63186;51.204;6.536;2023-03-01T04:46:11;102389.50;;;-4.86;93.24
74659;BME280;63186;51.204;6.536;2023-03-01T04:48:38;102381.47;;;-4.86;93.43
74659;BME280;63186;51.204;6.536;2023-03-01T04:51:04;102390.84;;;-4.74;94.05
74659;BME280;63186;51.204;6.536;2023-03-01T04:53:30;102389.31;;;-4.77;92.84
74659;BME280;63186;51.204;6.536;2023-03-01T04:55:56;102392.34;;;-4.72;92.65
74659;BME280;63186;51.204;6.536;2023-03-01T04:58:26;102382.25;;;-4.61;93.86
74659;BME280;63186;51.204;6.536;2023-03-01T05:00:53;102384.13;;;-4.62;92.22
74659;BME280;63186;51.204;6.536;2023-03-01T05:03:18;102386.31;;;-4.74;91.67
74659;BME280;63186;51.204;6.536;2023-03-01T05:05:46;102374.06;;;-4.84;92.45
74659;BME280;63186;51.204;6.536;2023-03-01T05:08:13;102374.41;;;-4.79;93.26
74659;BME280;63186;51.204;6.536;2023-03-01T05:10:44;102369.84;;;-4.79;93.57
74659;BME280;63186;51.204;6.536;2023-03-01T05:13:11;102379.41;;;-4.76;92.88
74659;BME280;63186;51.204;6.536;2023-03-01T05:15:38;102381.41;;;-4.70;94.34
74659;BME280;63186;51.204;6.536;2023-03-01T05:18:03;102379.09;;;-4.73;92.46
74659;BME280;63186;51.204;6.536;2023-03-01T05:20:29;102377.75;;;-4.85;92.71
74659;BME280;63186;51.204;6.536;2023-03-01T05:22:58;102378.28;;;-4.82;93.05
74659;BME280;63186;51.204;6.536;2023-03-01T05:25:30;102380.78;;;-4.80;94.18
74659;BME280;63186;51.204;6.536;2023-03-01T05:27:58;102371.66;;;-4.63;94.53
74659;BME280;63186;51.204;6.536;2023-03-01T05:30:23;102363.22;;;-4.35;93.86
74659;BME280;63186;51.204;6.536;2023-03-01T05:32:50;102366.91;;;-4.45;91.25
74659;BME280;63186;51.204;6.536;2023-03-01T05:35:21;102361.25;;;-4.50;91.82
74659;BME280;63186;51.204;6.536;2023-03-01T05:37:48;102356.19;;;-4.53;92.86
74659;BME280;63186;51.204;6.536;2023-03-01T05:40:16;102367.09;;;-4.46;91.68
74659;BME280;63186;51.204;6.536;2023-03-01T05:42:47;102368.81;;;-4.53;91.22
74659;BME280;63186;51.204;6.536;2023-03-01T05:45:13;102381.72;;;-4.57;91.48
74659;BME280;63186;51.204;6.536;2023-03-01T05:47:40;102362.44;;;-4.60;91.68
74659;BME280;63186;51.204;6.536;2023-03-01T05:50:14;102358.84;;;-4.45;92.46
74659;BME280;63186;51.204;6.536;2023-03-01T05:52:48;102363.72;;;-4.40;92.00
74659;BME280;63186;51.204;6.536;2023-03-01T05:55:17;102361.88;;;-4.40;91.67
74659;BME280;63186;51.204;6.536;2023-03-01T05:57:42;102362.56;;;-4.46;91.27
74659;BME280;63186;51.204;6.536;2023-03-01T06:00:09;102360.19;;;-4.41;93.24
74659;BME280;63186;51.204;6.536;2023-03-01T06:02:34;102366.69;;;-4.27;91.36
74659;BME280;63186;51.204;6.536;2023-03-01T06:05:00;102363.97;;;-4.19;92.45
74659;BME280;63186;51.204;6.536;2023-03-01T06:07:25;102372.19;;;-4.12;91.10
74659;BME280;63186;51.204;6.536;2023-03-01T06:09:51;102368.13;;;-4.08;91.36
74659;BME280;63186;51.204;6.536;2023-03-01T06:12:16;102377.03;;;-4.07;90.47
74659;BME280;63186;51.204;6.536;2023-03-01T06:14:42;102376.06;;;-4.15;91.94
74659;BME280;63186;51.204;6.536;2023-03-01T06:17:07;102376.72;;;-4.13;91.86
74659;BME280;63186;51.204;6.536;2023-03-01T06:19:32;102367.63;;;-4.12;90.66
74659;BME280;63186;51.204;6.536;2023-03-01T06:21:58;102372.22;;;-4.20;90.33
74659;BME280;63186;51.204;6.536;2023-03-01T06:24:23;102368.19;;;-4.24;90.98
74659;BME280;63186;51.204;6.536;2023-03-01T06:26:48;102363.50;;;-4.30;91.11
74659;BME280;63186;51.204;6.536;2023-03-01T06:29:13;102362.16;;;-4.26;91.26
74659;BME280;63186;51.204;6.536;2023-03-01T06:31:39;102366.19;;;-4.30;90.83
74659;BME280;63186;51.204;6.536;2023-03-01T06:34:05;102356.31;;;-4.30;91.65
74659;BME280;63186;51.204;6.536;2023-03-01T06:36:30;102350.75;;;-4.28;90.95
74659;BME280;63186;51.204;6.536;2023-03-01T06:38:55;102352.41;;;-4.27;90.83
74659;BME280;63186;51.204;6.536;2023-03-01T06:41:20;102350.06;;;-4.22;91.01
74659;BME280;63186;51.204;6.536;2023-03-01T06:43:46;102358.59;;;-4.11;90.08
74659;BME280;63186;51.204;6.536;2023-03-01T06:46:11;102356.72;;;-4.10;90.38
74659;BME280;63186;51.204;6.536;2023-03-01T06:48:37;102360.53;;;-4.04;89.68
74659;BME280;63186;51.204;6.536;2023-03-01T06:51:02;102359.56;;;-4.03;89.86
74659;BME280;63186;51.204;6.536;2023-03-01T06:53:28;102361.38;;;-3.96;89.95
74659;BME280;63186;51.204;6.536;2023-03-01T06:55:57;102367.59;;;-3.72;90.18
74659;BME280;63186;51.204;6.536;2023-03-01T06:58:23;102365.28;;;-3.07;88.46
74659;BME280;63186;51.204;6.536;2023-03-01T07:00:48;102365.66;;;-2.42;85.56
74659;BME280;63186;51.204;6.536;2023-03-01T07:03:13;102366.22;;;-1.67;82.76
74659;BME280;63186;51.204;6.536;2023-03-01T07:05:39;102369.16;;;-1.04;78.89
74659;BME280;63186;51.204;6.536;2023-03-01T07:08:04;102366.69;;;-0.99;77.74
74659;BME280;63186;51.204;6.536;2023-03-01T07:10:29;102360.19;;;-1.04;77.73
74659;BME280;63186;51.204;6.536;2023-03-01T07:12:58;102362.81;;;-0.62;77.78
74659;BME280;63186;51.204;6.536;2023-03-01T07:15:25;102373.56;;;0.56;74.62
74659;BME280;63186;51.204;6.536;2023-03-01T07:17:50;102373.16;;;1.71;70.57
74659;BME280;63186;51.204;6.536;2023-03-01T07:20:17;102370.03;;;2.64;66.99
74659;BME280;63186;51.204;6.536;2023-03-01T07:22:43;102365.28;;;3.41;64.17
74659;BME280;63186;51.204;6.536;2023-03-01T07:25:09;102370.38;;;3.74;62.22
74659;BME280;63186;51.204;6.536;2023-03-01T07:27:35;102364.56;;;4.07;61.69
74659;BME280;63186;51.204;6.536;2023-03-01T07:30:00;102372.56;;;4.20;60.27
74659;BME280;63186;51.204;6.536;2023-03-01T07:32:26;102366.03;;;4.40;59.77
74659;BME280;63186;51.204;6.536;2023-03-01T07:34:51;102368.41;;;4.48;58.72
74659;BME280;63186;51.204;6.536;2023-03-01T07:37:16;102362.88;;;4.54;59.01
74659;BME280;63186;51.204;6.536;2023-03-01T07:39:42;102347.97;;;4.57;57.96
74659;BME280;63186;51.204;6.536;2023-03-01T07:42:07;102358.84;;;4.99;57.83
74659;BME280;63186;51.204;6.536;2023-03-01T07:44:32;102346.41;;;5.26;56.59
74659;BME280;63186;51.204;6.536;2023-03-01T07:46:59;102352.13;;;5.48;56.39
74659;BME280;63186;51.204;6.536;2023-03-01T07:49:24;102352.22;;;5.65;55.42
74659;BME280;63186;51.204;6.536;2023-03-01T07:51:51;102353.34;;;6.16;54.63
74659;BME280;63186;51.204;6.536;2023-03-01T07:54:16;102356.63;;;6.30;53.70
74659;BME280;63186;51.204;6.536;2023-03-01T07:56:43;102356.19;;;6.49;52.91
74659;BME280;63186;51.204;6.536;2023-03-01T07:59:08;102365.19;;;6.62;52.75
74659;BME280;63186;51.204;6.536;2023-03-01T08:01:33;102362.59;;;6.27;51.88
74659;BME280;63186;51.204;6.536;2023-03-01T08:03:58;102370.59;;;6.45;52.82
74659;BME280;63186;51.204;6.536;2023-03-01T08:06:24;102374.44;;;6.72;52.19
74659;BME280;63186;51.204;6.536;2023-03-01T08:08:49;102377.38;;;6.99;51.39
74659;BME280;63186;51.204;6.536;2023-03-01T08:11:15;102383.59;;;7.12;50.32
74659;BME280;63186;51.204;6.536;2023-03-01T08:13:41;102377.88;;;7.13;50.50
74659;BME280;63186;51.204;6.536;2023-03-01T08:16:10;102365.50;;;7.11;50.20
74659;BME280;63186;51.204;6.536;2023-03-01T08:18:36;102364.22;;;5.64;53.76
74659;BME280;63186;51.204;6.536;2023-03-01T08:21:06;102354.63;;;5.38;53.57
74659;BME280;63186;51.204;6.536;2023-03-01T08:23:31;102361.13;;;5.13;53.83
74659;BME280;63186;51.204;6.536;2023-03-01T08:26:09;102357.97;;;3.60;58.07
74659;BME280;63186;51.204;6.536;2023-03-01T08:28:36;102357.09;;;2.21;63.80
74659;BME280;63186;51.204;6.536;2023-03-01T08:31:01;102353.56;;;1.43;66.33
74659;BME280;63186;51.204;6.536;2023-03-01T08:33:27;102352.38;;;0.99;69.39
74659;BME280;63186;51.204;6.536;2023-03-01T08:35:52;102357.75;;;0.66;70.00
74659;BME280;63186;51.204;6.536;2023-03-01T08:38:18;102352.06;;;0.41;71.75
74659;BME280;63186;51.204;6.536;2023-03-01T08:40:43;102351.41;;;0.32;73.16
74659;BME280;63186;51.204;6.536;2023-03-01T08:43:08;102350.56;;;0.32;73.87
74659;BME280;63186;51.204;6.536;2023-03-01T08:45:33;102348.94;;;0.37;72.67
74659;BME280;63186;51.204;6.536;2023-03-01T08:47:59;102343.28;;;0.32;73.06
74659;BME280;63186;51.204;6.536;2023-03-01T08:50:24;102348.53;;;0.34;72.88
74659;BME280;63186;51.204;6.536;2023-03-01T08:52:50;102346.66;;;0.41;72.84
74659;BME280;63186;51.204;6.536;2023-03-01T08:55:16;102338.09;;;0.37;73.35
74659;BME280;63186;51.204;6.536;2023-03-01T08:57:42;102331.22;;;0.35;72.99
74659;BME280;63186;51.204;6.536;2023-03-01T09:00:08;102335.16;;;0.39;74.18
74659;BME280;63186;51.204;6.536;2023-03-01T09:02:33;102336.03;;;0.39;74.03
74659;BME280;63186;51.204;6.536;2023-03-01T09:04:59;102341.66;;;0.51;74.59
74659;BME280;63186;51.204;6.536;2023-03-01T09:07:26;102332.09;;;0.62;73.11
74659;BME280;63186;51.204;6.536;2023-03-01T09:09:53;102332.94;;;0.75;72.49
74659;BME280;63186;51.204;6.536;2023-03-01T09:12:19;102333.56;;;0.91;72.26
74659;BME280;63186;51.204;6.536;2023-03-01T09:14:44;102323.69;;;1.56;69.92
74659;BME280;63186;51.204;6.536;2023-03-01T09:17:09;102323.41;;;3.17;64.93
74659;BME280;63186;51.204;6.536;2023-03-01T09:19:35;102324.59;;;4.01;61.45
74659;BME280;63186;51.204;6.536;2023-03-01T09:22:00;102323.84;;;5.07;56.41
74659;BME280;63186;51.204;6.536;2023-03-01T09:24:25;102330.94;;;5.67;54.13
74659;BME280;63186;51.204;6.536;2023-03-01T09:26:54;102327.78;;;6.22;52.31
74659;BME280;63186;51.204;6.536;2023-03-01T09:29:20;102327.81;;;6.67;51.36
74659;BME280;63186;51.204;6.536;2023-03-01T09:31:46;102326.97;;;7.34;49.48
74659;BME280;63186;51.204;6.536;2023-03-01T09:34:11;102320.16;;;7.37;49.77
74659;BME280;63186;51.204;6.536;2023-03-01T09:36:38;102316.63;;;7.19;49.30
74659;BME280;63186;51.204;6.536;2023-03-01T09:39:04;102319.97;;;7.04;50.38
74659;BME280;63186;51.204;6.536;2023-03-01T09:41:44;102315.59;;;7.42;48.12
74659;BME280;63186;51.204;6.536;2023-03-01T09:44:23;102310.81;;;7.93;46.21
74659;BME280;63186;51.204;6.536;2023-03-01T09:46:49;102309.16;;;7.92;47.89
74659;BME280;63186;51.204;6.536;2023-03-01T09:49:19;102313.91;;;8.02;47.03
74659;BME280;63186;51.204;6.536;2023-03-01T09:52:06;102306.97;;;7.72;44.59
74659;BME280;63186;51.204;6.536;2023-03-01T09:54:37;102304.22;;;8.16;47.70
74659;BME280;63186;51.204;6.536;2023-03-01T09:57:33;102302.84;;;8.40;45.07
74659;BME280;63186;51.204;6.536;2023-03-01T10:11:29;102296.19;;;7.44;44.93
74659;BME280;63186;51.204;6.536;2023-03-01T10:14:03;102297.03;;;7.88;45.18
74659;BME280;63186;51.204;6.536;2023-03-01T10:16:41;102295.69;;;7.30;46.27
74659;BME280;63186;51.204;6.536;2023-03-01T10:19:17;102285.44;;;6.87;45.86
74659;BME280;63186;51.204;6.536;2023-03-01T10:21:46;102274.56;;;6.75;47.66
74659;BME280;63186;51.204;6.536;2023-03-01T10:24:16;102278.19;;;6.64;48.71
74659;BME280;63186;51.204;6.536;2023-03-01T10:26:58;102273.50;;;6.31;45.32
74659;BME280;63186;51.204;6.536;2023-03-01T10:29:33;102274.22;;;6.09;49.08
74659;BME280;63186;51.204;6.536;2023-03-01T10:32:00;102262.63;;;5.79;49.37
74659;BME280;63186;51.204;6.536;2023-03-01T10:34:34;102262.34;;;5.52;48.10
74659;BME280;63186;51.204;6.536;2023-03-01T10:37:14;102267.03;;;5.16;48.65
74659;BME280;63186;51.204;6.536;2023-03-01T10:40:02;102250.00;;;5.37;50.36
74659;BME280;63186;51.204;6.536;2023-03-01T10:42:33;102253.56;;;5.90;50.28
74659;BME280;63186;51.204;6.536;2023-03-01T10:47:44;102252.91;;;6.40;48.95
74659;BME280;63186;51.204;6.536;2023-03-01T10:50:22;102248.22;;;6.23;46.79
74659;BME280;63186;51.204;6.536;2023-03-01T10:52:59;102246.50;;;6.51;47.62
74659;BME280;63186;51.204;6.536;2023-03-01T10:55:39;102236.56;;;6.45;47.90
74659;BME280;63186;51.204;6.536;2023-03-01T10:58:21;102238.81;;;6.82;46.05
74659;BME280;63186;51.204;6.536;2023-03-01T11:03:22;102236.84;;;6.60;46.42
74659;BME280;63186;51.204;6.536;2023-03-01T11:08:44;102228.84;;;5.96;46.26
74659;BME280;63186;51.204;6.536;2023-03-01T11:13:55;102213.16;;;5.52;48.69
74659;BME280;63186;51.204;6.536;2023-03-01T11:16:27;102219.63;;;5.34;48.28
74659;BME280;63186;51.204;6.536;2023-03-01T11:21:37;102202.91;;;5.18;49.30
74659;BME280;63186;51.204;6.536;2023-03-01T11:24:08;102201.63;;;5.09;50.13
74659;BME280;63186;51.204;6.536;2023-03-01T11:26:38;102195.78;;;5.17;50.46
74659;BME280;63186;51.204;6.536;2023-03-01T11:29:16;102199.94;;;5.20;49.79
74659;BME280;63186;51.204;6.536;2023-03-01T11:31:43;102187.03;;;5.15;50.00
74659;BME280;63186;51.204;6.536;2023-03-01T11:34:17;102179.75;;;5.21;49.40
74659;BME280;63186;51.204;6.536;2023-03-01T11:36:52;102187.34;;;5.31;49.19
74659;BME280;63186;51.204;6.536;2023-03-01T11:39:34;102188.78;;;5.22;49.88
74659;BME280;63186;51.204;6.536;2023-03-01T11:42:18;102184.38;;;5.21;48.56
74659;BME280;63186;51.204;6.536;2023-03-01T11:44:48;102184.28;;;5.15;48.40
74659;BME280;63186;51.204;6.536;2023-03-01T11:47:33;102184.75;;;5.01;50.19
74659;BME280;63186;51.204;6.536;2023-03-01T11:50:12;102184.63;;;5.07;49.17
74659;BME280;63186;51.204;6.536;2023-03-01T11:52:46;102175.47;;;5.25;49.33
74659;BME280;63186;51.204;6.536;2023-03-01T11:55:25;102171.16;;;5.41;48.27
74659;BME280;63186;51.204;6.536;2023-03-01T12:01:10;102163.75;;;5.53;47.51
74659;BME280;63186;51.204;6.536;2023-03-01T12:09:20;102179.81;;;5.50;48.58
74659;BME280;63186;51.204;6.536;2023-03-01T12:14:53;102179.47;;;5.34;50.32
74659;BME280;63186;51.204;6.536;2023-03-01T12:17:32;102178.19;;;5.25;51.11
74659;BME280;63186;51.204;6.536;2023-03-01T12:20:21;102158.84;;;5.27;49.51
74659;BME280;63186;51.204;6.536;2023-03-01T12:31:32;102143.84;;;5.41;50.48
74659;BME280;63186;51.204;6.536;2023-03-01T12:34:21;102139.84;;;5.32;51.26
74659;BME280;63186;51.204;6.536;2023-03-01T12:39:55;102125.88;;;5.16;51.09
74659;BME280;63186;51.204;6.536;2023-03-01T12:50:52;102124.03;;;5.34;51.67
74659;BME280;63186;51.204;6.536;2023-03-01T12:53:47;102126.75;;;5.34;48.22
74659;BME280;63186;51.204;6.536;2023-03-01T12:56:21;102117.88;;;5.27;50.11
74659;BME280;63186;51.204;6.536;2023-03-01T12:59:09;102117.03;;;5.38;49.98
74659;BME280;63186;51.204;6.536;2023-03-01T13:07:25;102097.25;;;5.48;51.36
74659;BME280;63186;51.204;6.536;2023-03-01T13:17:55;102083.69;;;5.36;48.89
74659;BME280;63186;51.204;6.536;2023-03-01T13:20:25;102087.50;;;5.35;48.79
74659;BME280;63186;51.204;6.536;2023-03-01T13:23:03;102081.72;;;5.48;46.81
74659;BME280;63186;51.204;6.536;2023-03-01T13:25:29;102079.72;;;5.43;49.15
74659;BME280;63186;51.204;6.536;2023-03-01T13:30:58;102070.56;;;5.50;49.99
74659;BME280;63186;51.204;6.536;2023-03-01T13:35:53;102067.28;;;5.64;50.24
74659;BME280;63186;51.204;6.536;2023-03-01T13:41:03;102070.81;;;5.48;49.09
74659;BME280;63186;51.204;6.536;2023-03-01T13:43:39;102064.31;;;5.37;49.26
74659;BME280;63186;51.204;6.536;2023-03-01T13:46:23;102067.31;;;5.36;48.28
74659;BME280;63186;51.204;6.536;2023-03-01T13:48:53;102053.28;;;5.32;49.38
74659;BME280;63186;51.204;6.536;2023-03-01T13:51:23;102061.09;;;5.40;49.91
74659;BME280;63186;51.204;6.536;2023-03-01T13:53:50;102056.44;;;5.41;49.31
74659;BME280;63186;51.204;6.536;2023-03-01T13:56:23;102067.31;;;5.36;47.52
74659;BME280;63186;51.204;6.536;2023-03-01T13:59:04;102059.31;;;5.34;47.82
74659;BME280;63186;51.204;6.536;2023-03-01T14:01:33;102048.91;;;5.31;47.95
74659;BME280;63186;51.204;6.536;2023-03-01T14:03:59;102044.63;;;5.35;47.79
74659;BME280;63186;51.204;6.536;2023-03-01T14:06:27;102042.47;;;5.37;48.61
74659;BME280;63186;51.204;6.536;2023-03-01T14:09:16;102030.63;;;5.32;45.48
74659;BME280;63186;51.204;6.536;2023-03-01T14:14:45;102032.16;;;5.28;46.44
74659;BME280;63186;51.204;6.536;2023-03-01T14:20:01;102021.97;;;5.35;47.13
74659;BME280;63186;51.204;6.536;2023-03-01T14:22:34;102021.97;;;5.35;48.40
74659;BME280;63186;51.204;6.536;2023-03-01T14:25:06;102016.56;;;5.40;48.33
74659;BME280;63186;51.204;6.536;2023-03-01T14:27:42;102016.91;;;5.43;49.23
74659;BME280;63186;51.204;6.536;2023-03-01T14:30:14;102024.53;;;5.41;49.26
74659;BME280;63186;51.204;6.536;2023-03-01T14:32:40;102011.72;;;5.42;48.65
74659;BME280;63186;51.204;6.536;2023-03-01T14:35:57;102004.09;;;5.44;47.97